Terminal Aerodrome Forecast
Issued by NWS Jacksonville, FL

Home | Current Version | Previous Version | Text Only | Print | Product List | Glossary On
Versions: 1 2 3 4 5 6 7 8 9 10 11 12 13 14 15 16 17 18 19 20 21
000
FTUS42 KJAX 171135
TAFGNV
TAF
KGNV 171135Z 1712/1812 02011G18KT P6SM SCT010 BKN015 OVC025
      TEMPO 1712/1716 BKN010
     FM171600 03012G22KT P6SM SCT015 BKN025
     FM171900 04011G17KT P6SM SCT025 BKN040
     FM180000 03008KT P6SM SCT025=

USA.gov is the U.S. government's official web portal to all federal, state and local government web resources and services.